createdAt,value
2022-12-26T00:00:23.530Z,17.23
2022-12-26T00:02:51.128Z,18.00
2022-12-26T00:05:17.655Z,16.85
2022-12-26T00:07:44.577Z,19.02
2022-12-26T00:10:11.375Z,19.33
2022-12-26T00:12:37.873Z,18.60
2022-12-26T00:15:04.724Z,22.10
2022-12-26T00:17:31.209Z,22.55
2022-12-26T00:19:57.705Z,22.30
2022-12-26T00:22:24.259Z,22.67
2022-12-26T00:24:50.758Z,21.85
2022-12-26T00:27:17.336Z,23.70
2022-12-26T00:29:43.871Z,22.50
2022-12-26T00:32:10.377Z,22.95
2022-12-26T00:34:36.992Z,23.08
2022-12-26T00:37:03.551Z,22.00
2022-12-26T00:39:30.244Z,22.52
2022-12-26T00:41:56.759Z,24.08
2022-12-26T00:44:23.264Z,23.30
2022-12-26T00:46:49.860Z,23.92
2022-12-26T00:49:16.426Z,21.38
2022-12-26T00:51:43.032Z,21.77
2022-12-26T00:54:09.638Z,21.35
2022-12-26T00:56:36.193Z,22.73
2022-12-26T00:59:03.024Z,22.48
2022-12-26T01:01:31.230Z,23.15
2022-12-26T01:03:58.392Z,23.35
2022-12-26T01:06:24.976Z,25.17
2022-12-26T01:08:52.384Z,25.15
2022-12-26T01:11:40.026Z,24.73
2022-12-26T01:14:15.512Z,24.70
2022-12-26T01:16:46.807Z,25.35
2022-12-26T01:19:13.851Z,25.63
2022-12-26T01:21:42.007Z,25.42
2022-12-26T01:24:08.772Z,25.25
2022-12-26T01:26:35.348Z,24.35
2022-12-26T01:29:01.967Z,25.52
2022-12-26T01:31:28.532Z,24.60
2022-12-26T01:33:55.128Z,24.00
2022-12-26T01:36:21.716Z,25.10
2022-12-26T01:38:48.251Z,24.00
2022-12-26T01:41:17.636Z,24.52
2022-12-26T01:44:03.987Z,24.83
2022-12-26T01:46:32.472Z,23.88
2022-12-26T01:49:06.558Z,23.75
2022-12-26T01:51:39.041Z,23.15
2022-12-26T01:54:41.369Z,23.80
2022-12-26T01:56:55.025Z,24.92
2022-12-26T01:59:30.983Z,22.15
2022-12-26T02:02:00.136Z,23.60
2022-12-26T02:04:49.560Z,24.27
2022-12-26T02:07:17.133Z,23.23
2022-12-26T02:09:44.139Z,26.65
2022-12-26T02:12:37.479Z,26.92
2022-12-26T02:15:11.975Z,25.98
2022-12-26T02:17:40.075Z,25.67
2022-12-26T02:20:18.597Z,27.95
2022-12-26T02:22:48.239Z,25.65
2022-12-26T02:25:53.216Z,26.90
2022-12-26T02:28:56.653Z,28.92
2022-12-26T02:31:32.724Z,26.58
2022-12-26T02:34:15.595Z,25.30
2022-12-26T02:40:03.992Z,28.52
2022-12-26T02:42:59.664Z,28.85
2022-12-26T02:45:57.584Z,27.17
2022-12-26T02:48:51.634Z,26.83
2022-12-26T02:51:48.163Z,27.08
2022-12-26T02:54:52.639Z,27.25
2022-12-26T02:57:42.379Z,26.88
2022-12-26T03:00:34.618Z,28.08
2022-12-26T03:03:44.012Z,26.17
2022-12-26T03:06:38.397Z,25.42
2022-12-26T03:09:29.501Z,27.55
2022-12-26T03:12:53.728Z,27.30
2022-12-26T03:15:23.153Z,24.92
2022-12-26T03:17:55.381Z,26.95
2022-12-26T03:20:30.929Z,28.25
2022-12-26T03:23:08.197Z,28.33
2022-12-26T03:25:54.316Z,28.35
2022-12-26T03:28:25.442Z,25.85
2022-12-26T03:30:53.357Z,25.70
2022-12-26T03:33:44.110Z,28.58
2022-12-26T03:36:29.032Z,28.05
2022-12-26T03:39:46.660Z,26.17
2022-12-26T03:42:42.194Z,25.30
2022-12-26T03:45:38.737Z,24.25
2022-12-26T03:48:40.309Z,23.05
2022-12-26T03:51:33.928Z,23.40
2022-12-26T03:54:34.241Z,24.17
2022-12-26T03:57:27.387Z,21.58
2022-12-26T04:00:20.342Z,23.15
2022-12-26T04:03:08.586Z,20.92
2022-12-26T04:05:58.338Z,19.80
2022-12-26T04:08:50.081Z,20.65
2022-12-26T04:11:37.252Z,19.20
2022-12-26T04:14:29.519Z,18.02
2022-12-26T04:17:21.992Z,16.05
2022-12-26T04:20:06.792Z,16.20
2022-12-26T04:23:01.566Z,14.82
2022-12-26T04:26:13.481Z,14.23
2022-12-26T04:28:58.589Z,12.23
2022-12-26T04:31:51.805Z,12.80
2022-12-26T04:34:56.732Z,11.35
2022-12-26T04:37:44.552Z,10.68
2022-12-26T04:40:38.446Z,11.02
2022-12-26T04:43:49.562Z,9.50
2022-12-26T04:46:15.171Z,9.00
2022-12-26T04:49:03.376Z,9.10
2022-12-26T04:51:29.920Z,9.48
2022-12-26T04:53:56.522Z,9.18
2022-12-26T04:56:23.048Z,8.35
2022-12-26T04:58:49.613Z,9.25
2022-12-26T05:01:35.057Z,9.35
2022-12-26T05:04:20.257Z,8.65
2022-12-26T05:07:05.379Z,8.95
2022-12-26T05:09:35.763Z,8.43
2022-12-26T05:12:08.443Z,8.50
2022-12-26T05:17:22.228Z,9.13
2022-12-26T05:20:07.546Z,8.85
2022-12-26T05:22:55.385Z,7.88
2022-12-26T05:25:44.557Z,9.02
2022-12-26T05:28:34.148Z,8.30
2022-12-26T05:31:04.864Z,8.35
2022-12-26T05:33:49.809Z,7.88
2022-12-26T05:36:19.294Z,7.80
2022-12-26T05:38:46.299Z,7.78
2022-12-26T05:41:12.827Z,7.55
2022-12-26T05:43:39.426Z,8.02
2022-12-26T05:46:06.277Z,6.50
2022-12-26T05:48:33.852Z,6.88
2022-12-26T05:51:02.829Z,6.95
2022-12-26T05:53:30.545Z,7.10
2022-12-26T05:56:06.703Z,7.68
2022-12-26T05:58:33.806Z,7.38
2022-12-26T06:01:20.313Z,7.80
2022-12-26T06:03:56.400Z,7.35
2022-12-26T06:06:24.716Z,7.28
2022-12-26T06:08:52.935Z,7.10
2022-12-26T06:11:20.254Z,7.45
2022-12-26T06:13:46.723Z,6.82
2022-12-26T06:16:15.526Z,6.97
2022-12-26T06:18:42.296Z,7.72
2022-12-26T06:21:15.862Z,6.70
2022-12-26T06:23:42.600Z,7.45
2022-12-26T06:26:10.368Z,7.13
2022-12-26T06:28:37.645Z,7.50
2022-12-26T06:31:22.167Z,8.43
2022-12-26T06:33:54.232Z,8.32
2022-12-26T06:36:23.716Z,7.00
2022-12-26T06:38:50.417Z,8.57
2022-12-26T06:41:19.246Z,7.55
2022-12-26T06:43:45.923Z,7.28
2022-12-26T06:46:15.857Z,8.00
2022-12-26T06:48:42.727Z,8.88
2022-12-26T06:51:11.957Z,8.52
2022-12-26T06:53:39.090Z,7.63
2022-12-26T06:56:11.187Z,8.02
2022-12-26T06:58:38.017Z,8.63
2022-12-26T07:01:10.367Z,7.53
2022-12-26T07:03:37.352Z,7.45
2022-12-26T07:06:12.418Z,6.43
2022-12-26T07:08:39.018Z,6.68
2022-12-26T07:11:12.505Z,6.32
2022-12-26T07:13:38.980Z,6.30
2022-12-26T07:16:05.702Z,6.43
2022-12-26T07:18:32.359Z,6.93
2022-12-26T07:21:19.375Z,7.05
2022-12-26T07:23:48.147Z,6.20
2022-12-26T07:26:14.642Z,6.05
2022-12-26T07:28:41.234Z,6.80
2022-12-26T07:31:07.959Z,6.22
2022-12-26T07:33:34.702Z,6.30
2022-12-26T07:36:03.399Z,6.32
2022-12-26T07:38:30.097Z,5.85
2022-12-26T07:40:57.729Z,6.32
2022-12-26T07:43:25.300Z,6.20
2022-12-26T07:45:52.640Z,5.93
2022-12-26T07:48:19.314Z,6.13
2022-12-26T07:50:47.317Z,6.25
2022-12-26T07:53:14.982Z,5.18
2022-12-26T07:55:42.017Z,5.93
2022-12-26T07:58:08.616Z,5.07
2022-12-26T08:00:35.133Z,4.63
2022-12-26T08:03:07.480Z,5.55
2022-12-26T08:05:34.938Z,4.60
2022-12-26T08:08:01.488Z,5.05
2022-12-26T08:10:28.103Z,4.25
2022-12-26T08:12:54.719Z,4.45
2022-12-26T08:15:21.368Z,4.47
2022-12-26T08:17:47.936Z,5.63
2022-12-26T08:20:14.539Z,4.45
2022-12-26T08:22:41.192Z,4.63
2022-12-26T08:25:08.429Z,4.78
2022-12-26T08:27:35.184Z,4.18
2022-12-26T08:30:01.933Z,4.43
2022-12-26T08:32:28.510Z,4.47
2022-12-26T08:34:55.021Z,4.88
2022-12-26T08:37:26.456Z,4.32
2022-12-26T08:39:53.602Z,4.38
2022-12-26T08:42:23.222Z,4.20
2022-12-26T08:44:49.887Z,3.40
2022-12-26T08:47:16.451Z,3.95
2022-12-26T08:49:43.374Z,4.00
2022-12-26T08:52:09.960Z,3.35
2022-12-26T08:54:37.717Z,3.70
2022-12-26T08:57:04.342Z,3.25
2022-12-26T08:59:30.930Z,3.47
2022-12-26T09:01:58.218Z,3.75
2022-12-26T09:04:24.801Z,3.78
2022-12-26T09:06:51.493Z,3.10
2022-12-26T09:09:19.391Z,2.92
2022-12-26T09:11:46.002Z,2.97
2022-12-26T09:14:13.081Z,2.80
2022-12-26T09:16:49.175Z,3.00
2022-12-26T09:19:17.644Z,2.30
2022-12-26T09:21:44.921Z,2.80
2022-12-26T09:24:14.300Z,2.40
2022-12-26T09:26:41.535Z,2.30
2022-12-26T09:29:10.791Z,2.28
2022-12-26T09:31:37.712Z,2.20
2022-12-26T09:34:05.795Z,2.25
2022-12-26T09:36:37.765Z,2.10
2022-12-26T09:39:04.434Z,2.20
2022-12-26T09:42:24.476Z,2.50
2022-12-26T09:45:17.413Z,1.90
2022-12-26T09:47:56.666Z,2.13
2022-12-26T09:50:31.675Z,2.10
2022-12-26T09:53:03.316Z,2.55
2022-12-26T09:55:42.641Z,1.95
2022-12-26T09:58:35.607Z,1.85
2022-12-26T10:01:13.803Z,2.22
2022-12-26T10:03:44.954Z,1.80
2022-12-26T10:06:23.808Z,2.55
2022-12-26T10:09:05.343Z,1.83
2022-12-26T10:12:02.176Z,1.60
2022-12-26T10:14:53.017Z,1.77
2022-12-26T10:17:37.697Z,2.13
2022-12-26T10:20:17.799Z,1.58
2022-12-26T10:22:56.410Z,1.90
2022-12-26T10:25:45.457Z,1.60
2022-12-26T10:28:41.228Z,2.00
2022-12-26T10:31:26.748Z,2.05
2022-12-26T10:34:10.728Z,2.35
2022-12-26T10:36:43.106Z,2.53
2022-12-26T10:39:25.054Z,1.70
2022-12-26T10:41:55.611Z,1.63
2022-12-26T10:44:27.902Z,1.40
2022-12-26T10:47:03.817Z,2.78
2022-12-26T10:49:30.421Z,2.30
2022-12-26T10:52:00.577Z,2.53
2022-12-26T10:54:29.263Z,4.80
2022-12-26T10:56:57.596Z,3.78
2022-12-26T10:59:35.999Z,3.88
2022-12-26T11:02:20.040Z,2.08
2022-12-26T11:05:22.113Z,2.05
2022-12-26T11:08:05.123Z,2.60
2022-12-26T11:10:31.908Z,2.15
2022-12-26T11:13:06.261Z,3.60
2022-12-26T11:15:35.189Z,2.97
2022-12-26T11:18:28.078Z,2.83
2022-12-26T11:20:54.758Z,2.30
2022-12-26T11:23:24.884Z,2.65
2022-12-26T11:26:02.138Z,2.17
2022-12-26T11:28:37.099Z,2.63
2022-12-26T11:31:07.252Z,2.80
2022-12-26T11:33:43.571Z,2.15
2022-12-26T11:36:16.106Z,2.33
2022-12-26T11:38:45.869Z,2.38
2022-12-26T11:41:36.246Z,2.38
2022-12-26T11:44:13.189Z,2.03
2022-12-26T11:46:39.810Z,2.13
2022-12-26T11:49:15.580Z,2.17
2022-12-26T11:51:46.035Z,2.53
2022-12-26T11:54:31.110Z,1.60
2022-12-26T11:57:19.327Z,2.13
2022-12-26T11:59:47.424Z,1.73
2022-12-26T12:02:24.117Z,2.08
2022-12-26T12:04:53.495Z,1.77
2022-12-26T12:08:12.605Z,1.73
2022-12-26T12:10:49.683Z,2.22
2022-12-26T12:13:35.784Z,1.70
2022-12-26T12:16:21.260Z,1.77
2022-12-26T12:19:01.070Z,1.83
2022-12-26T12:21:40.109Z,2.17
2022-12-26T12:24:28.481Z,1.77
2022-12-26T12:27:08.385Z,2.22
2022-12-26T12:30:09.182Z,1.75
2022-12-26T12:32:57.012Z,1.70
2022-12-26T12:35:34.292Z,1.77
2022-12-26T12:38:33.669Z,2.35
2022-12-26T12:41:24.994Z,1.95
2022-12-26T12:44:11.772Z,2.08
2022-12-26T12:46:56.820Z,1.83
2022-12-26T12:49:44.662Z,1.85
2022-12-26T12:52:42.663Z,4.65
2022-12-26T12:55:29.289Z,8.68
2022-12-26T12:58:20.308Z,3.22
2022-12-26T13:00:52.386Z,4.93
2022-12-26T13:03:58.876Z,1.70
2022-12-26T13:06:34.856Z,1.30
2022-12-26T13:09:20.178Z,1.20
2022-12-26T13:11:58.742Z,1.90
2022-12-26T13:14:30.905Z,1.75
2022-12-26T13:17:03.838Z,1.77
2022-12-26T13:19:40.863Z,1.73
2022-12-26T13:22:14.833Z,1.92
2022-12-26T13:24:49.803Z,1.35
2022-12-26T13:27:23.974Z,2.05
2022-12-26T13:29:50.627Z,1.70
2022-12-26T13:32:24.384Z,1.48
2022-12-26T13:34:54.556Z,1.85
2022-12-26T13:37:39.029Z,1.73
2022-12-26T13:40:27.595Z,1.58
2022-12-26T13:43:32.664Z,1.20
2022-12-26T13:45:59.582Z,1.80
2022-12-26T13:48:26.067Z,1.13
2022-12-26T13:51:33.084Z,1.85
2022-12-26T13:54:10.084Z,1.50
2022-12-26T13:56:46.077Z,2.03
2022-12-26T13:59:21.375Z,2.13
2022-12-26T14:02:17.575Z,1.35
2022-12-26T14:04:58.169Z,1.77
2022-12-26T14:07:41.844Z,1.60
2022-12-26T14:10:45.458Z,1.77
2022-12-26T14:13:38.330Z,1.70
2022-12-26T14:16:45.773Z,2.03
2022-12-26T14:19:24.042Z,1.45
2022-12-26T14:22:14.285Z,1.60
2022-12-26T14:25:02.761Z,1.60
2022-12-26T14:27:32.235Z,1.48
2022-12-26T14:30:15.318Z,1.67
2022-12-26T14:33:22.024Z,1.42
2022-12-26T14:36:22.761Z,1.15
2022-12-26T14:39:05.999Z,2.10
2022-12-26T14:42:26.062Z,1.58
2022-12-26T14:44:56.487Z,1.35
2022-12-26T14:47:44.031Z,2.08
2022-12-26T14:50:32.310Z,1.40
2022-12-26T14:53:20.463Z,1.35
2022-12-26T14:55:58.425Z,2.50
2022-12-26T14:58:31.072Z,1.60
2022-12-26T15:03:46.922Z,1.73
2022-12-26T15:06:19.589Z,1.50
2022-12-26T15:09:20.196Z,1.90
2022-12-26T15:12:19.657Z,1.73
2022-12-26T15:14:58.241Z,1.75
2022-12-26T15:17:54.178Z,1.70
2022-12-26T15:20:26.793Z,2.20
2022-12-26T15:23:09.009Z,2.17
2022-12-26T15:25:46.943Z,1.40
2022-12-26T15:28:28.628Z,1.73
2022-12-26T15:31:25.157Z,2.05
2022-12-26T15:34:06.012Z,2.00
2022-12-26T15:36:44.711Z,1.65
2022-12-26T15:39:20.252Z,1.73
2022-12-26T15:42:04.691Z,1.73
2022-12-26T15:44:45.056Z,1.30
2022-12-26T15:47:48.806Z,1.33
2022-12-26T15:50:21.449Z,1.52
2022-12-26T15:55:59.411Z,1.63
2022-12-26T15:58:45.836Z,1.83
2022-12-26T16:01:12.816Z,2.28
2022-12-26T16:03:56.643Z,2.00
2022-12-26T16:06:41.448Z,2.05
2022-12-26T16:09:41.737Z,2.00
2022-12-26T16:12:22.934Z,2.45
2022-12-26T16:14:50.758Z,1.80
2022-12-26T16:17:21.051Z,1.60
2022-12-26T16:19:50.571Z,2.40
2022-12-26T16:22:43.970Z,2.13
2022-12-26T16:25:14.331Z,1.73
2022-12-26T16:27:41.592Z,1.70
2022-12-26T16:30:16.260Z,2.15
2022-12-26T16:32:43.856Z,2.40
2022-12-26T16:35:19.909Z,4.15
2022-12-26T16:37:47.793Z,10.30
2022-12-26T16:40:17.845Z,5.30
2022-12-26T16:42:54.185Z,5.85
2022-12-26T16:45:22.272Z,7.50
2022-12-26T16:47:49.822Z,7.70
2022-12-26T16:50:19.847Z,6.68
2022-12-26T16:52:47.141Z,4.88
2022-12-26T16:55:36.446Z,3.92
2022-12-26T16:58:22.869Z,2.53
2022-12-26T17:01:00.603Z,2.00
2022-12-26T17:03:34.643Z,2.28
2022-12-26T17:06:09.849Z,1.70
2022-12-26T17:08:41.713Z,1.33
2022-12-26T17:11:08.456Z,1.40
2022-12-26T17:13:35.131Z,2.10
2022-12-26T17:16:10.585Z,1.83
2022-12-26T17:18:48.530Z,2.42
2022-12-26T17:21:34.077Z,2.45
2022-12-26T17:24:09.749Z,2.92
2022-12-26T17:26:38.487Z,2.88
2022-12-26T17:29:05.445Z,2.67
2022-12-26T17:31:37.506Z,2.70
2022-12-26T17:34:13.676Z,3.03
2022-12-26T17:39:27.142Z,2.80
2022-12-26T17:42:00.087Z,2.80
2022-12-26T17:44:52.873Z,3.10
2022-12-26T17:47:25.102Z,3.30
2022-12-26T17:49:53.466Z,3.00
2022-12-26T17:52:23.550Z,1.98
2022-12-26T17:54:51.128Z,2.25
2022-12-26T17:57:21.482Z,1.95
2022-12-26T17:59:48.841Z,2.05
2022-12-26T18:02:15.674Z,2.78
2022-12-26T18:04:42.725Z,2.42
2022-12-26T18:07:30.567Z,2.53
2022-12-26T18:09:58.709Z,2.17
2022-12-26T18:12:25.212Z,2.67
2022-12-26T18:14:54.660Z,2.13
2022-12-26T18:17:26.217Z,2.25
2022-12-26T18:19:52.757Z,2.45
2022-12-26T18:22:19.896Z,2.45
2022-12-26T18:24:46.435Z,2.22
2022-12-26T18:27:22.591Z,2.17
2022-12-26T18:29:50.241Z,2.90
2022-12-26T18:32:33.683Z,2.88
2022-12-26T18:35:00.830Z,2.58
2022-12-26T18:37:29.898Z,2.85
2022-12-26T18:39:56.580Z,2.28
2022-12-26T18:42:23.858Z,2.95
2022-12-26T18:44:50.333Z,2.33
2022-12-26T18:47:19.436Z,2.95
2022-12-26T18:49:46.984Z,2.28
2022-12-26T18:52:17.943Z,2.30
2022-12-26T18:54:45.311Z,3.10
2022-12-26T18:57:17.914Z,2.90
2022-12-26T19:02:19.108Z,3.00
2022-12-26T19:04:48.435Z,2.42
2022-12-26T19:07:16.889Z,2.70
2022-12-26T19:09:44.843Z,2.55
2022-12-26T19:12:11.726Z,2.30
2022-12-26T19:14:38.631Z,2.40
2022-12-26T19:17:05.134Z,2.60
2022-12-26T19:19:32.016Z,2.50
2022-12-26T19:21:58.747Z,1.80
2022-12-26T19:24:25.231Z,2.92
2022-12-26T19:26:51.812Z,2.88
2022-12-26T19:29:18.290Z,3.58
2022-12-26T19:31:45.978Z,3.08
2022-12-26T19:34:12.555Z,2.13
2022-12-26T19:36:39.903Z,2.85
2022-12-26T19:39:06.389Z,2.40
2022-12-26T19:41:32.951Z,3.00
2022-12-26T19:44:00.668Z,3.67
2022-12-26T19:46:28.791Z,3.28
2022-12-26T19:48:55.647Z,3.05
2022-12-26T19:51:22.754Z,2.95
2022-12-26T19:53:49.490Z,3.50
2022-12-26T19:56:23.753Z,2.55
2022-12-26T19:58:56.133Z,2.80
2022-12-26T20:01:26.707Z,2.92
2022-12-26T20:03:58.353Z,2.45
2022-12-26T20:06:26.586Z,3.50
2022-12-26T20:08:57.620Z,3.53
2022-12-26T20:11:28.426Z,3.30
2022-12-26T20:13:55.606Z,3.35
2022-12-26T20:17:03.334Z,2.75
2022-12-26T20:19:11.151Z,2.90
2022-12-26T20:21:38.436Z,2.85
2022-12-26T20:24:05.602Z,3.25
2022-12-26T20:26:32.169Z,3.63
2022-12-26T20:29:01.804Z,3.03
2022-12-26T20:31:31.129Z,2.80
2022-12-26T20:33:58.373Z,2.50
2022-12-26T20:36:27.817Z,3.15
2022-12-26T20:38:57.585Z,2.90
2022-12-26T20:41:24.852Z,3.35
2022-12-26T20:43:52.118Z,2.78
2022-12-26T20:46:25.563Z,3.67
2022-12-26T20:48:53.837Z,3.08
2022-12-26T20:51:23.227Z,2.92
2022-12-26T20:53:50.799Z,2.78
2022-12-26T20:56:17.945Z,2.92
2022-12-26T20:58:44.778Z,2.95
2022-12-26T21:01:13.887Z,3.53
2022-12-26T21:03:40.582Z,2.83
2022-12-26T21:06:09.282Z,4.07
2022-12-26T21:08:36.653Z,3.38
2022-12-26T21:11:09.073Z,3.72
2022-12-26T21:13:37.086Z,3.80
2022-12-26T21:16:21.756Z,3.58
2022-12-26T21:18:49.079Z,3.95
2022-12-26T21:21:21.790Z,4.88
2022-12-26T21:23:49.604Z,3.40
2022-12-26T21:26:16.308Z,3.78
2022-12-26T21:28:42.880Z,2.97
2022-12-26T21:31:11.412Z,3.53
2022-12-26T21:33:44.200Z,3.58
2022-12-26T21:36:13.263Z,3.40
2022-12-26T21:38:40.403Z,2.95
2022-12-26T21:41:08.538Z,3.55
2022-12-26T21:43:35.566Z,2.95
2022-12-26T21:46:11.863Z,3.22
2022-12-26T21:48:38.564Z,3.63
2022-12-26T21:51:09.287Z,3.85
2022-12-26T21:53:37.633Z,3.97
2022-12-26T21:56:05.928Z,3.33
2022-12-26T21:58:52.697Z,3.63
2022-12-26T22:01:21.369Z,3.22
2022-12-26T22:04:06.671Z,3.22
2022-12-26T22:06:33.516Z,4.07
2022-12-26T22:09:00.628Z,4.00
2022-12-26T22:11:46.339Z,3.65
2022-12-26T22:14:13.024Z,3.72
2022-12-26T22:16:39.970Z,3.55
2022-12-26T22:19:07.479Z,4.22
2022-12-26T22:21:34.330Z,3.95
2022-12-26T22:24:01.464Z,3.97
2022-12-26T22:26:29.256Z,4.40
2022-12-26T22:28:59.096Z,3.40
2022-12-26T22:31:34.210Z,3.47
2022-12-26T22:34:03.574Z,3.80
2022-12-26T22:36:30.991Z,3.50
2022-12-26T22:38:59.567Z,3.85
2022-12-26T22:41:27.205Z,3.90
2022-12-26T22:43:55.515Z,4.25
2022-12-26T22:46:24.074Z,3.67
2022-12-26T22:48:50.777Z,4.43
2022-12-26T22:51:19.511Z,3.53
2022-12-26T22:53:47.089Z,3.78
2022-12-26T22:56:13.551Z,4.63
2022-12-26T22:58:40.034Z,3.90
2022-12-26T23:01:15.598Z,3.55
2022-12-26T23:03:42.525Z,4.00
2022-12-26T23:06:21.965Z,3.90
2022-12-26T23:08:50.016Z,4.15
2022-12-26T23:11:16.900Z,3.70
2022-12-26T23:13:44.686Z,3.35
2022-12-26T23:16:23.453Z,3.63
2022-12-26T23:19:13.270Z,4.68
2022-12-26T23:21:41.840Z,3.85
2022-12-26T23:24:11.867Z,4.32
2022-12-26T23:26:39.638Z,4.00
2022-12-26T23:29:25.385Z,4.35
2022-12-26T23:31:52.136Z,4.65
2022-12-26T23:34:18.679Z,4.78
2022-12-26T23:36:45.162Z,4.90
2022-12-26T23:39:11.811Z,4.07
2022-12-26T23:41:38.528Z,4.00
2022-12-26T23:44:05.413Z,3.95
2022-12-26T23:46:32.101Z,4.05
2022-12-26T23:48:58.700Z,4.30
2022-12-26T23:51:25.383Z,4.30
2022-12-26T23:53:51.883Z,3.95
2022-12-26T23:56:18.671Z,4.50
2022-12-26T23:58:45.168Z,4.30
